sensor_id;sensor_type;location;lat;lon;timestamp;pressure;altitude;pressure_sealevel;temperature;humidity
34243;BME280;20504;43.214;27.920;2023-08-31T00:13:48;95109.13;;;30.71;100.00
34243;BME280;20504;43.214;27.920;2023-08-31T00:35:28;95254.34;;;31.04;100.00
34243;BME280;20504;43.214;27.920;2023-08-31T01:23:15;95348.50;;;30.72;100.00
34243;BME280;20504;43.214;27.920;2023-08-31T06:03:24;95630.50;;;30.50;100.00
34243;BME280;20504;43.214;27.920;2023-08-31T06:21:54;95863.63;;;30.29;100.00
34243;BME280;20504;43.214;27.920;2023-08-31T07:34:29;95606.16;;;33.74;100.00
34243;BME280;20504;43.214;27.920;2023-08-31T07:38:03;95902.91;;;34.20;100.00
34243;BME280;20504;43.214;27.920;2023-08-31T07:40:55;95891.03;;;33.77;100.00
34243;BME280;20504;43.214;27.920;2023-08-31T09:12:06;98318.34;;;36.50;100.00
34243;BME280;20504;43.214;27.920;2023-08-31T09:34:07;99450.94;;;38.42;100.00
34243;BME280;20504;43.214;27.920;2023-08-31T09:37:21;99353.75;;;37.56;100.00
34243;BME280;20504;43.214;27.920;2023-08-31T09:42:50;99504.25;;;38.61;100.00
34243;BME280;20504;43.214;27.920;2023-08-31T09:55:25;100197.34;;;39.40;100.00
34243;BME280;20504;43.214;27.920;2023-08-31T09:58:21;100266.44;;;38.89;100.00
34243;BME280;20504;43.214;27.920;2023-08-31T10:01:11;100318.56;;;39.40;100.00
34243;BME280;20504;43.214;27.920;2023-08-31T10:03:41;100334.16;;;39.35;100.00
34243;BME280;20504;43.214;27.920;2023-08-31T10:06:10;100406.91;;;39.56;100.00
34243;BME280;20504;43.214;27.920;2023-08-31T10:08:44;100390.50;;;39.60;100.00
34243;BME280;20504;43.214;27.920;2023-08-31T10:14:54;100475.84;;;39.73;100.00
34243;BME280;20504;43.214;27.920;2023-08-31T10:18:34;100614.94;;;40.30;100.00
34243;BME280;20504;43.214;27.920;2023-08-31T10:21:32;100585.16;;;40.59;100.00
34243;BME280;20504;43.214;27.920;2023-08-31T10:24:10;100475.19;;;40.53;100.00
34243;BME280;20504;43.214;27.920;2023-08-31T10:26:41;100493.38;;;40.21;100.00
34243;BME280;20504;43.214;27.920;2023-08-31T10:29:29;100047.63;;;40.33;100.00
34243;BME280;20504;43.214;27.920;2023-08-31T10:32:34;99198.44;;;40.04;100.00
34243;BME280;20504;43.214;27.920;2023-08-31T10:35:10;98852.09;;;39.45;100.00
34243;BME280;20504;43.214;27.920;2023-08-31T10:37:49;98745.31;;;39.22;100.00
34243;BME280;20504;43.214;27.920;2023-08-31T10:40:17;98802.84;;;39.42;100.00
34243;BME280;20504;43.214;27.920;2023-08-31T10:43:18;98283.41;;;39.05;100.00
34243;BME280;20504;43.214;27.920;2023-08-31T10:46:00;98209.41;;;39.51;100.00
34243;BME280;20504;43.214;27.920;2023-08-31T10:48:28;97926.41;;;39.31;100.00
34243;BME280;20504;43.214;27.920;2023-08-31T10:50:59;97916.38;;;39.02;100.00
34243;BME280;20504;43.214;27.920;2023-08-31T10:53:30;97932.34;;;39.05;100.00
34243;BME280;20504;43.214;27.920;2023-08-31T10:55:56;97800.66;;;38.84;100.00
34243;BME280;20504;43.214;27.920;2023-08-31T10:58:31;97659.09;;;39.01;100.00
34243;BME280;20504;43.214;27.920;2023-08-31T11:04:11;97144.75;;;37.33;100.00
34243;BME280;20504;43.214;27.920;2023-08-31T11:06:41;96806.03;;;37.86;100.00
34243;BME280;20504;43.214;27.920;2023-08-31T11:09:18;96824.59;;;37.86;100.00
34243;BME280;20504;43.214;27.920;2023-08-31T11:11:48;96748.53;;;37.34;100.00
34243;BME280;20504;43.214;27.920;2023-08-31T11:14:14;96679.63;;;37.22;100.00
34243;BME280;20504;43.214;27.920;2023-08-31T11:17:00;96617.84;;;37.30;100.00
34243;BME280;20504;43.214;27.920;2023-08-31T11:19:31;96566.81;;;37.01;100.00
34243;BME280;20504;43.214;27.920;2023-08-31T11:22:04;96673.38;;;37.90;100.00
34243;BME280;20504;43.214;27.920;2023-08-31T11:24:35;96814.94;;;38.64;100.00
34243;BME280;20504;43.214;27.920;2023-08-31T11:27:00;97127.63;;;39.42;100.00
34243;BME280;20504;43.214;27.920;2023-08-31T11:29:30;97308.50;;;39.19;100.00
34243;BME280;20504;43.214;27.920;2023-08-31T11:31:56;97496.13;;;39.19;100.00
34243;BME280;20504;43.214;27.920;2023-08-31T11:34:25;97593.53;;;39.21;100.00
34243;BME280;20504;43.214;27.920;2023-08-31T11:36:53;97742.88;;;39.38;100.00
34243;BME280;20504;43.214;27.920;2023-08-31T11:39:19;97584.25;;;37.89;100.00
34243;BME280;20504;43.214;27.920;2023-08-31T11:41:44;97499.81;;;38.20;100.00
34243;BME280;20504;43.214;27.920;2023-08-31T11:44:13;97024.88;;;37.06;100.00
34243;BME280;20504;43.214;27.920;2023-08-31T11:46:40;96735.44;;;37.50;100.00
34243;BME280;20504;43.214;27.920;2023-08-31T11:49:09;96622.06;;;37.70;100.00
34243;BME280;20504;43.214;27.920;2023-08-31T11:51:37;96761.88;;;37.71;100.00
34243;BME280;20504;43.214;27.920;2023-08-31T11:54:06;96537.34;;;36.86;100.00
34243;BME280;20504;43.214;27.920;2023-08-31T11:56:44;96608.72;;;36.87;100.00
34243;BME280;20504;43.214;27.920;2023-08-31T11:59:15;96590.72;;;38.08;100.00
34243;BME280;20504;43.214;27.920;2023-08-31T12:01:42;97101.41;;;38.55;100.00
34243;BME280;20504;43.214;27.920;2023-08-31T12:04:22;97155.53;;;38.01;100.00
34243;BME280;20504;43.214;27.920;2023-08-31T12:07:02;97057.06;;;38.51;100.00
34243;BME280;20504;43.214;27.920;2023-08-31T12:09:38;96996.88;;;38.09;100.00
34243;BME280;20504;43.214;27.920;2023-08-31T12:12:04;97196.94;;;39.22;100.00
34243;BME280;20504;43.214;27.920;2023-08-31T12:14:29;97674.22;;;39.79;100.00
34243;BME280;20504;43.214;27.920;2023-08-31T12:17:11;97957.19;;;40.22;100.00
34243;BME280;20504;43.214;27.920;2023-08-31T12:24:49;98308.84;;;40.71;100.00
34243;BME280;20504;43.214;27.920;2023-08-31T12:27:25;98173.59;;;39.94;100.00
34243;BME280;20504;43.214;27.920;2023-08-31T12:29:55;98223.34;;;40.00;100.00
34243;BME280;20504;43.214;27.920;2023-08-31T12:32:28;98073.53;;;39.75;100.00
34243;BME280;20504;43.214;27.920;2023-08-31T12:34:55;97874.97;;;39.06;100.00
34243;BME280;20504;43.214;27.920;2023-08-31T12:37:25;97594.19;;;38.86;100.00
34243;BME280;20504;43.214;27.920;2023-08-31T12:39:57;97499.56;;;38.53;100.00
34243;BME280;20504;43.214;27.920;2023-08-31T12:42:35;97331.44;;;38.34;100.00
34243;BME280;20504;43.214;27.920;2023-08-31T12:45:01;97271.81;;;38.36;100.00
34243;BME280;20504;43.214;27.920;2023-08-31T12:47:36;97318.19;;;37.68;100.00
34243;BME280;20504;43.214;27.920;2023-08-31T12:50:23;97164.72;;;37.14;100.00
34243;BME280;20504;43.214;27.920;2023-08-31T12:52:49;97006.81;;;36.65;100.00
34243;BME280;20504;43.214;27.920;2023-08-31T12:55:38;97151.16;;;36.53;100.00
34243;BME280;20504;43.214;27.920;2023-08-31T12:58:07;96923.41;;;35.60;100.00
34243;BME280;20504;43.214;27.920;2023-08-31T13:09:24;96395.63;;;35.08;100.00
34243;BME280;20504;43.214;27.920;2023-08-31T13:12:12;96444.53;;;35.46;100.00
34243;BME280;20504;43.214;27.920;2023-08-31T13:19:51;96767.69;;;36.88;100.00
34243;BME280;20504;43.214;27.920;2023-08-31T13:22:31;96879.88;;;36.65;100.00
34243;BME280;20504;43.214;27.920;2023-08-31T13:28:16;96840.06;;;37.52;100.00
34243;BME280;20504;43.214;27.920;2023-08-31T13:34:29;97495.34;;;39.88;100.00
34243;BME280;20504;43.214;27.920;2023-08-31T13:37:08;98051.41;;;41.69;100.00
34243;BME280;20504;43.214;27.920;2023-08-31T13:45:47;98795.38;;;43.81;100.00
34243;BME280;20504;43.214;27.920;2023-08-31T13:48:32;99403.69;;;45.37;100.00
34243;BME280;20504;43.214;27.920;2023-08-31T13:50:58;99755.72;;;44.74;100.00
34243;BME280;20504;43.214;27.920;2023-08-31T13:56:57;99189.25;;;43.15;100.00
34243;BME280;20504;43.214;27.920;2023-08-31T14:07:30;99611.19;;;43.75;100.00
34243;BME280;20504;43.214;27.920;2023-08-31T14:17:24;100055.97;;;45.19;100.00
34243;BME280;20504;43.214;27.920;2023-08-31T14:19:49;100180.78;;;45.62;100.00
34243;BME280;20504;43.214;27.920;2023-08-31T14:33:20;98145.88;;;37.84;100.00
34243;BME280;20504;43.214;27.920;2023-08-31T16:37:04;93613.19;;;27.24;100.00
34243;BME280;20504;43.214;27.920;2023-08-31T16:42:59;93660.38;;;27.46;100.00
34243;BME280;20504;43.214;27.920;2023-08-31T17:46:09;94531.56;;;27.05;100.00
34243;BME280;20504;43.214;27.920;2023-08-31T17:49:27;94437.38;;;26.65;100.00
34243;BME280;20504;43.214;27.920;2023-08-31T18:23:02;94608.88;;;26.95;100.00
34243;BME280;20504;43.214;27.920;2023-08-31T18:38:41;94419.31;;;26.57;100.00
34243;BME280;20504;43.214;27.920;2023-08-31T18:44:39;94382.66;;;26.07;100.00
34243;BME280;20504;43.214;27.920;2023-08-31T18:48:17;94537.25;;;26.19;100.00
34243;BME280;20504;43.214;27.920;2023-08-31T19:06:26;95234.53;;;25.52;100.00
34243;BME280;20504;43.214;27.920;2023-08-31T19:14:10;95210.94;;;25.52;100.00
34243;BME280;20504;43.214;27.920;2023-08-31T19:16:38;95245.66;;;25.76;100.00
34243;BME280;20504;43.214;27.920;2023-08-31T19:19:13;95174.19;;;25.81;100.00
34243;BME280;20504;43.214;27.920;2023-08-31T19:21:49;95166.84;;;25.81;100.00
34243;BME280;20504;43.214;27.920;2023-08-31T19:24:20;95107.72;;;25.57;100.00
34243;BME280;20504;43.214;27.920;2023-08-31T19:26:55;95142.84;;;25.45;100.00
34243;BME280;20504;43.214;27.920;2023-08-31T19:29:30;95001.19;;;25.57;100.00
34243;BME280;20504;43.214;27.920;2023-08-31T19:32:13;95028.47;;;25.90;100.00
34243;BME280;20504;43.214;27.920;2023-08-31T19:34:45;94987.78;;;25.90;100.00
34243;BME280;20504;43.214;27.920;2023-08-31T19:37:21;95156.38;;;26.01;100.00
34243;BME280;20504;43.214;27.920;2023-08-31T19:39:50;95189.84;;;26.13;100.00
34243;BME280;20504;43.214;27.920;2023-08-31T19:42:18;95195.81;;;26.36;100.00
34243;BME280;20504;43.214;27.920;2023-08-31T19:44:44;95265.81;;;26.22;100.00
34243;BME280;20504;43.214;27.920;2023-08-31T19:47:15;95326.31;;;26.14;100.00
34243;BME280;20504;43.214;27.920;2023-08-31T19:49:48;95262.22;;;26.39;100.00
34243;BME280;20504;43.214;27.920;2023-08-31T19:52:15;95336.78;;;26.50;100.00
34243;BME280;20504;43.214;27.920;2023-08-31T19:54:41;95433.41;;;26.51;100.00
34243;BME280;20504;43.214;27.920;2023-08-31T19:57:07;95517.25;;;26.09;100.00
34243;BME280;20504;43.214;27.920;2023-08-31T19:59:35;95533.06;;;26.24;100.00
34243;BME280;20504;43.214;27.920;2023-08-31T20:02:06;95397.44;;;26.63;100.00
34243;BME280;20504;43.214;27.920;2023-08-31T20:04:35;95399.03;;;26.64;100.00
34243;BME280;20504;43.214;27.920;2023-08-31T20:07:01;95426.19;;;26.55;100.00
34243;BME280;20504;43.214;27.920;2023-08-31T20:09:26;95375.56;;;26.59;100.00
34243;BME280;20504;43.214;27.920;2023-08-31T20:11:52;95435.78;;;26.52;100.00
34243;BME280;20504;43.214;27.920;2023-08-31T20:14:17;95440.00;;;26.41;100.00
34243;BME280;20504;43.214;27.920;2023-08-31T20:16:43;95471.56;;;26.54;100.00
34243;BME280;20504;43.214;27.920;2023-08-31T20:19:09;95460.38;;;26.65;100.00
34243;BME280;20504;43.214;27.920;2023-08-31T20:21:35;95567.09;;;26.48;100.00
34243;BME280;20504;43.214;27.920;2023-08-31T20:24:00;95587.22;;;26.38;100.00
34243;BME280;20504;43.214;27.920;2023-08-31T20:26:26;95535.16;;;26.45;100.00
34243;BME280;20504;43.214;27.920;2023-08-31T20:28:51;95526.69;;;26.46;100.00
34243;BME280;20504;43.214;27.920;2023-08-31T20:31:17;95513.09;;;26.64;100.00
34243;BME280;20504;43.214;27.920;2023-08-31T20:33:44;95497.91;;;26.71;100.00
34243;BME280;20504;43.214;27.920;2023-08-31T20:36:10;95498.69;;;26.72;100.00
34243;BME280;20504;43.214;27.920;2023-08-31T20:38:37;95454.34;;;26.97;100.00
34243;BME280;20504;43.214;27.920;2023-08-31T20:41:03;95713.94;;;26.60;100.00
34243;BME280;20504;43.214;27.920;2023-08-31T20:43:31;95713.94;;;26.60;100.00
34243;BME280;20504;43.214;27.920;2023-08-31T20:46:23;95770.81;;;26.65;100.00
34243;BME280;20504;43.214;27.920;2023-08-31T20:48:50;95857.56;;;26.62;100.00
34243;BME280;20504;43.214;27.920;2023-08-31T20:51:16;95838.66;;;26.56;100.00
34243;BME280;20504;43.214;27.920;2023-08-31T20:53:41;95916.69;;;26.65;100.00
34243;BME280;20504;43.214;27.920;2023-08-31T20:56:08;95991.84;;;26.47;100.00
34243;BME280;20504;43.214;27.920;2023-08-31T20:58:34;96042.16;;;26.31;100.00
34243;BME280;20504;43.214;27.920;2023-08-31T21:01:05;96027.28;;;26.42;100.00
34243;BME280;20504;43.214;27.920;2023-08-31T21:03:31;96051.44;;;26.30;100.00
34243;BME280;20504;43.214;27.920;2023-08-31T21:05:59;95947.34;;;26.12;100.00
34243;BME280;20504;43.214;27.920;2023-08-31T21:08:25;95984.84;;;26.32;100.00
34243;BME280;20504;43.214;27.920;2023-08-31T21:10:52;95955.25;;;26.44;100.00
34243;BME280;20504;43.214;27.920;2023-08-31T21:13:18;95951.44;;;26.45;100.00
34243;BME280;20504;43.214;27.920;2023-08-31T21:15:45;95993.75;;;26.24;100.00
34243;BME280;20504;43.214;27.920;2023-08-31T21:18:10;96034.81;;;26.31;100.00
34243;BME280;20504;43.214;27.920;2023-08-31T21:20:36;96014.06;;;26.13;100.00
34243;BME280;20504;43.214;27.920;2023-08-31T21:23:02;95960.78;;;26.39;100.00
34243;BME280;20504;43.214;27.920;2023-08-31T21:25:28;96049.81;;;26.29;100.00
34243;BME280;20504;43.214;27.920;2023-08-31T21:27:53;96154.03;;;26.05;100.00
34243;BME280;20504;43.214;27.920;2023-08-31T21:30:19;96148.56;;;26.19;100.00
34243;BME280;20504;43.214;27.920;2023-08-31T21:32:46;96257.78;;;26.30;100.00
34243;BME280;20504;43.214;27.920;2023-08-31T21:35:11;96205.88;;;26.17;100.00
34243;BME280;20504;43.214;27.920;2023-08-31T21:37:37;96180.38;;;26.68;100.00
34243;BME280;20504;43.214;27.920;2023-08-31T21:40:05;96221.16;;;26.54;100.00
34243;BME280;20504;43.214;27.920;2023-08-31T21:42:32;96373.84;;;26.38;100.00
34243;BME280;20504;43.214;27.920;2023-08-31T21:44:58;96401.47;;;26.26;100.00
34243;BME280;20504;43.214;27.920;2023-08-31T21:47:29;96370.03;;;26.39;100.00
34243;BME280;20504;43.214;27.920;2023-08-31T21:50:01;96395.75;;;26.27;100.00
34243;BME280;20504;43.214;27.920;2023-08-31T21:55:07;96485.50;;;26.36;100.00
34243;BME280;20504;43.214;27.920;2023-08-31T21:57:33;96381.31;;;26.46;100.00
34243;BME280;20504;43.214;27.920;2023-08-31T22:00:08;96408.78;;;26.58;100.00
34243;BME280;20504;43.214;27.920;2023-08-31T22:05:09;96487.94;;;26.00;100.00
34243;BME280;20504;43.214;27.920;2023-08-31T22:07:53;96397.44;;;26.23;100.00
34243;BME280;20504;43.214;27.920;2023-08-31T22:10:42;96409.47;;;26.17;100.00
34243;BME280;20504;43.214;27.920;2023-08-31T22:13:08;96471.81;;;26.09;100.00
34243;BME280;20504;43.214;27.920;2023-08-31T22:15:34;96498.47;;;26.20;100.00
34243;BME280;20504;43.214;27.920;2023-08-31T22:18:13;96476.50;;;25.84;100.00
34243;BME280;20504;43.214;27.920;2023-08-31T22:23:20;96426.72;;;26.26;100.00
34243;BME280;20504;43.214;27.920;2023-08-31T22:25:55;96464.72;;;25.94;100.00
34243;BME280;20504;43.214;27.920;2023-08-31T22:28:21;96627.28;;;25.72;100.00
34243;BME280;20504;43.214;27.920;2023-08-31T22:30:47;96696.69;;;25.49;100.00
34243;BME280;20504;43.214;27.920;2023-08-31T22:35:48;96732.06;;;25.91;100.00
34243;BME280;20504;43.214;27.920;2023-08-31T22:38:18;96744.81;;;25.91;100.00
34243;BME280;20504;43.214;27.920;2023-08-31T22:40:45;96808.34;;;26.14;100.00
34243;BME280;20504;43.214;27.920;2023-08-31T22:43:11;96814.28;;;25.58;100.00
34243;BME280;20504;43.214;27.920;2023-08-31T22:45:37;96797.00;;;25.83;100.00
34243;BME280;20504;43.214;27.920;2023-08-31T22:48:05;96906.63;;;25.82;100.00
34243;BME280;20504;43.214;27.920;2023-08-31T22:50:34;96981.78;;;26.20;100.00
34243;BME280;20504;43.214;27.920;2023-08-31T22:53:01;96926.41;;;26.16;100.00
34243;BME280;20504;43.214;27.920;2023-08-31T22:55:28;96972.41;;;25.69;100.00
34243;BME280;20504;43.214;27.920;2023-08-31T22:57:59;96886.31;;;25.79;100.00
34243;BME280;20504;43.214;27.920;2023-08-31T23:00:47;96982.19;;;25.59;100.00
34243;BME280;20504;43.214;27.920;2023-08-31T23:03:26;96976.66;;;25.80;100.00
34243;BME280;20504;43.214;27.920;2023-08-31T23:06:17;96911.13;;;25.57;100.00
34243;BME280;20504;43.214;27.920;2023-08-31T23:08:46;96901.19;;;25.87;100.00
34243;BME280;20504;43.214;27.920;2023-08-31T23:11:24;96906.28;;;25.93;100.00
34243;BME280;20504;43.214;27.920;2023-08-31T23:14:00;96893.06;;;25.82;100.00
34243;BME280;20504;43.214;27.920;2023-08-31T23:16:43;96921.97;;;25.96;100.00
34243;BME280;20504;43.214;27.920;2023-08-31T23:19:24;96973.53;;;26.36;100.00
34243;BME280;20504;43.214;27.920;2023-08-31T23:21:58;97002.94;;;26.23;100.00
34243;BME280;20504;43.214;27.920;2023-08-31T23:24:25;97087.31;;;26.37;100.00
34243;BME280;20504;43.214;27.920;2023-08-31T23:26:52;97037.81;;;26.45;100.00
34243;BME280;20504;43.214;27.920;2023-08-31T23:29:23;97058.06;;;26.58;100.00
34243;BME280;20504;43.214;27.920;2023-08-31T23:31:52;97144.63;;;26.41;100.00
34243;BME280;20504;43.214;27.920;2023-08-31T23:34:22;97264.72;;;26.27;100.00
34243;BME280;20504;43.214;27.920;2023-08-31T23:36:52;97239.56;;;26.61;100.00
34243;BME280;20504;43.214;27.920;2023-08-31T23:39:18;97243.22;;;26.31;100.00
34243;BME280;20504;43.214;27.920;2023-08-31T23:41:44;97311.19;;;26.80;100.00
34243;BME280;20504;43.214;27.920;2023-08-31T23:44:09;97387.41;;;26.60;100.00
34243;BME280;20504;43.214;27.920;2023-08-31T23:46:35;97461.25;;;26.82;100.00
34243;BME280;20504;43.214;27.920;2023-08-31T23:49:10;97481.13;;;26.63;100.00
34243;BME280;20504;43.214;27.920;2023-08-31T23:51:38;97473.25;;;26.66;100.00
34243;BME280;20504;43.214;27.920;2023-08-31T23:54:07;97484.13;;;26.56;100.00
34243;BME280;20504;43.214;27.920;2023-08-31T23:56:39;97529.44;;;27.01;100.00
34243;BME280;20504;43.214;27.920;2023-08-31T23:59:08;97439.16;;;27.04;100.00
